KDAG/DAG METAR and TAF weather

Enter ICAO airport designator
Station Type Date Time Source
KDAG METAR 2019/04/18 19:50 UTC NOAA

KDAG 181950Z AUTO 04008KT 10SM CLR 28/M01 A3015 RMK AO2 SLP190 T02831006


Station Type Date Time Source
KDAG Decoded METAR 2019/04/18 19:50 UTC NOAA

BARSTOW-DAGGETT AIRPORT, CA, United States (KDAG) 34-51N 116-47W 587M
Apr 18, 2019 - 03:50 PM EDT / 2019.04.18 1950 UTC
Wind: from the NE (040 degrees) at 9 MPH (8 KT):0
Visibility: 10 mile(s):0
Sky conditions: clear
Temperature: 82.9 F (28.3 C)
Dew Point: 30.9 F (-0.6 C)
Relative Humidity: 15%
Pressure (altimeter): 30.15 in. Hg (1020 hPa)
ob: KDAG 181950Z AUTO 04008KT 10SM CLR 28/M01 A3015 RMK AO2 SLP190 T02831006
cycle: 20

Station Type Date Time Source
KDAG TAF 2019/04/18 18:36 UTC NOAA

TAF KDAG 181733Z 1818/1918 VRB05KT P6SM FEW250
FM181900 07007KT P6SM FEW250
FM190200 VRB05KT P6SM SCT250
FM190600 26008KT P6SM SCT250

Example: see airport list